KG-0005 weather

Chatkel Agri Airport
Chatkel, Chuy Region, Kyrgyzstan

Public forecast

Using degrees Celsius for public forecast. Weather courtesy of forecast.io.

METAR (pilot weather report)

Closest report is Manas International Airport, 8.7 nm (16.1 km) ENE. Retrieved 2019/03/26 18:30 UTC (2 hours ago):

UCFM 261830Z 11004MPS 9000 NSC 11/01 Q1013 R26/09//95 NOSIG

TAF (pilot weather forecast)

Closest forecast is Manas International Airport, 8.7 nm (16.1 km) ENE. Retrieved 2019/03/26 18:00 UTC (2 hours ago):

TAF UCFM 261643Z 2618/2718 12004MPS 6000 SCT050CB BKN100 TEMPO 2618/2622 20003G08MPS 2000 FU TEMPO 2622/2704 24005G10MPS 2000 BR FU FEW005 FM270400 32003G08MPS 9999 BKN040CB TEMPO 2704/2710 28007G12MPS PROB40 TEMPO 2704/2710 TS